Time;durP1;ratioP1;P1;durP2;ratioP2;P2;SDS_P1;SDS_P2;PMS_P1;PMS_P2;Temp;Humidity;BMP_temperature;BMP_pressure;BME280_temperature;BME280_humidity;BME280_pressure;Samples;Min_cycle;Max_cycle;Signal;HPM_P1;HPM_P2
2023/09/13 00:02:21;;;;;;;7.05;2.60;;;;;;;19.75;78.61;100694.06;5051557;28;20040;-67
2023/09/13 00:04:46;;;;;;;4.70;3.28;;;;;;;19.70;78.95;100708.03;5051551;28;20043;-67
2023/09/13 00:07:11;;;;;;;5.60;3.05;;;;;;;19.68;79.80;100698.41;5051766;28;20373;-68
2023/09/13 00:09:41;;;;;;;7.10;2.67;;;;;;;19.31;78.81;100620.59;5052129;28;20108;-68
2023/09/13 00:12:07;;;;;;;8.73;3.22;;;;;;;19.67;79.29;100694.03;5051875;28;20025;-69
2023/09/13 00:14:32;;;;;;;10.77;3.03;;;;;;;19.76;79.36;100691.44;5051684;28;20063;-66
2023/09/13 00:16:59;;;;;;;7.05;2.80;;;;;;;19.66;78.92;100669.56;5051824;28;20121;-68
2023/09/13 00:19:27;;;;;;;7.50;2.80;;;;;;;19.72;79.17;100690.53;5050325;28;20488;-68
2023/09/13 00:21:53;;;;;;;3.97;2.75;;;;;;;19.71;79.65;100683.59;5015895;28;20420;-70
2023/09/13 00:24:18;;;;;;;7.22;2.97;;;;;;;19.67;80.66;100686.19;5051444;28;20031;-71
2023/09/13 00:26:43;;;;;;;5.10;3.22;;;;;;;19.58;81.76;100686.13;5050336;28;20029;-68
2023/09/13 00:29:09;;;;;;;10.80;3.60;;;;;;;19.21;83.69;100687.72;5033768;28;20060;-64
2023/09/13 00:31:34;;;;;;;10.48;3.60;;;;;;;19.01;85.34;100690.25;5050877;28;20082;-64
2023/09/13 00:34:00;;;;;;;6.22;3.85;;;;;;;18.84;86.84;100692.75;5051309;28;20104;-67
2023/09/13 00:36:25;;;;;;;6.75;3.85;;;;;;;18.16;88.61;100626.03;5050623;28;20075;-65
2023/09/13 00:38:51;;;;;;;7.03;3.13;;;;;;;18.42;85.38;100668.06;5051318;28;20041;-66
2023/09/13 00:41:16;;;;;;;7.40;3.25;;;;;;;18.50;83.92;100674.19;5050726;28;20028;-71
2023/09/13 00:43:42;;;;;;;6.60;3.25;;;;;;;18.58;84.71;100698.66;5051261;28;20037;-65
2023/09/13 00:46:07;;;;;;;7.10;3.75;;;;;;;18.50;84.99;100695.09;5051083;28;20021;-67
2023/09/13 00:48:35;;;;;;;8.23;4.07;;;;;;;18.40;85.58;100709.84;5037525;28;20102;-65
2023/09/13 00:51:02;;;;;;;10.35;3.33;;;;;;;18.17;84.56;100707.03;5051004;28;20163;-65
2023/09/13 00:53:29;;;;;;;7.97;3.15;;;;;;;17.15;84.87;100562.34;5051131;28;20025;-64
2023/09/13 00:55:55;;;;;;;4.50;2.85;;;;;;;17.99;84.77;100704.25;5050735;28;20040;-70
2023/09/13 00:58:21;;;;;;;5.30;3.25;;;;;;;17.85;85.00;100693.63;5050874;28;20431;-69
2023/09/13 01:00:53;;;;;;;5.40;2.97;;;;;;;17.82;85.09;100681.41;5050663;28;20032;-67
2023/09/13 01:03:19;;;;;;;6.97;3.40;;;;;;;18.10;84.13;100713.91;5050857;28;20021;-67
2023/09/13 01:05:45;;;;;;;7.10;3.35;;;;;;;18.16;83.63;100702.66;5050457;28;20051;-65
2023/09/13 01:08:11;;;;;;;5.47;3.10;;;;;;;18.06;83.65;100696.47;5051188;28;20037;-65
2023/09/13 01:10:37;;;;;;;5.65;2.80;;;;;;;18.21;83.71;100695.75;5049932;28;20021;-66
2023/09/13 01:13:03;;;;;;;5.30;2.72;;;;;;;18.33;82.80;100700.22;5050368;28;20107;-67
2023/09/13 01:15:33;;;;;;;4.90;2.97;;;;;;;17.44;83.19;100580.03;5050404;28;20028;-66
2023/09/13 01:18:08;;;;;;;7.35;3.08;;;;;;;17.83;84.29;100690.09;5050275;28;20021;-68
2023/09/13 01:21:25;;;;;;;6.25;3.60;;;;;;;17.88;84.49;100691.03;5050697;28;20033;-66
2023/09/13 01:24:08;;;;;;;6.55;3.63;;;;;;;18.09;82.92;100699.13;5007863;28;20045;-66
2023/09/13 01:26:52;;;;;;;7.07;3.35;;;;;;;18.02;83.22;100693.81;5007984;28;20443;-69
2023/09/13 01:29:19;;;;;;;5.10;3.05;;;;;;;17.58;83.03;100620.22;5008151;28;20040;-66
2023/09/13 01:31:45;;;;;;;4.95;2.90;;;;;;;18.05;83.12;100688.63;5008170;28;20034;-66
2023/09/13 01:34:10;;;;;;;5.75;3.25;;;;;;;17.83;84.87;100684.88;5008468;28;20049;-65
2023/09/13 01:36:37;;;;;;;5.85;3.22;;;;;;;17.66;86.25;100696.03;5008016;28;20041;-65
2023/09/13 01:39:04;;;;;;;4.65;3.28;;;;;;;17.40;87.89;100691.34;5007875;28;20041;-67
2023/09/13 01:41:51;;;;;;;5.70;3.28;;;;;;;17.50;87.38;100694.09;5008162;28;20034;-68
2023/09/13 01:44:18;;;;;;;4.50;3.10;;;;;;;17.46;88.33;100696.66;5008219;28;20125;-66
2023/09/13 01:46:45;;;;;;;6.32;3.28;;;;;;;17.10;89.93;100684.88;5008112;28;20060;-66
2023/09/13 01:49:13;;;;;;;5.68;3.10;;;;;;;17.26;89.36;100701.63;5008347;28;20026;-66
2023/09/13 01:51:39;;;;;;;6.28;3.58;;;;;;;17.22;88.85;100693.72;5008227;28;20033;-65
2023/09/13 01:54:05;;;;;;;6.25;3.65;;;;;;;16.97;90.40;100694.28;5008078;28;20092;-67
2023/09/13 01:56:30;;;;;;;6.60;3.55;;;;;;;16.82;89.70;100665.31;5007955;28;20042;-67
2023/09/13 01:58:56;;;;;;;5.95;3.47;;;;;;;16.92;89.41;100706.38;5020204;28;20542;-65
2023/09/13 02:01:22;;;;;;;4.63;3.35;;;;;;;16.73;90.01;100702.56;5050350;28;20035;-66
2023/09/13 02:03:47;;;;;;;6.97;3.83;;;;;;;16.81;89.77;100702.72;5050121;28;20080;-67
2023/09/13 02:06:13;;;;;;;6.07;3.63;;;;;;;16.79;89.11;100686.16;5050118;28;20163;-66
2023/09/13 02:08:40;;;;;;;5.68;3.60;;;;;;;16.86;89.60;100705.38;5050171;28;20032;-65
2023/09/13 02:11:08;;;;;;;6.35;3.72;;;;;;;16.97;88.37;100698.59;5049172;28;20029;-67
2023/09/13 02:13:34;;;;;;;9.48;3.75;;;;;;;16.35;90.03;100627.28;5049919;28;20029;-66
2023/09/13 02:16:00;;;;;;;5.82;3.60;;;;;;;16.78;90.01;100697.44;5049835;28;20704;-67
2023/09/13 02:18:25;;;;;;;6.88;3.80;;;;;;;16.59;90.95;100697.16;5049813;28;20090;-67
2023/09/13 02:20:51;;;;;;;7.45;4.07;;;;;;;16.51;91.77;100714.41;5047541;28;20400;-69
2023/09/13 02:23:16;;;;;;;5.40;3.38;;;;;;;16.54;91.78;100716.19;5048692;28;20037;-66
2023/09/13 02:25:45;;;;;;;6.75;3.58;;;;;;;16.43;92.33;100698.63;5049822;28;20029;-66
2023/09/13 02:28:11;;;;;;;8.13;4.15;;;;;;;16.58;91.61;100705.81;5049707;28;20451;-68
2023/09/13 02:30:38;;;;;;;4.95;3.75;;;;;;;16.78;91.23;100705.25;5049743;28;20459;-66
2023/09/13 02:33:04;;;;;;;7.07;4.18;;;;;;;16.74;90.86;100706.06;5049679;28;20084;-67
2023/09/13 02:35:31;;;;;;;7.55;4.07;;;;;;;16.82;90.20;100699.22;5049890;28;20016;-65
2023/09/13 02:37:57;;;;;;;6.22;3.55;;;;;;;16.90;89.65;100707.19;5049749;28;20060;-66
2023/09/13 02:40:23;;;;;;;6.22;4.00;;;;;;;17.04;89.10;100710.03;5049710;28;20025;-65
2023/09/13 02:42:49;;;;;;;5.88;3.88;;;;;;;17.08;87.64;100691.81;5049681;28;20029;-65
2023/09/13 02:45:14;;;;;;;6.85;3.92;;;;;;;17.09;88.12;100716.19;5049766;28;20549;-66
2023/09/13 02:47:39;;;;;;;6.30;3.85;;;;;;;17.12;87.51;100716.19;5049503;28;20424;-67
2023/09/13 02:50:06;;;;;;;5.72;3.90;;;;;;;17.06;87.84;100703.06;5049548;28;20039;-68
2023/09/13 02:52:33;;;;;;;7.20;3.92;;;;;;;16.53;88.81;100631.03;5049732;28;20029;-65
2023/09/13 02:55:00;;;;;;;5.53;3.70;;;;;;;16.99;88.71;100707.34;5049441;28;20025;-64
2023/09/13 02:57:26;;;;;;;8.10;4.50;;;;;;;16.92;88.74;100689.84;5049429;28;20512;-65
2023/09/13 02:59:52;;;;;;;9.20;4.40;;;;;;;16.18;88.80;100570.56;5049261;28;20021;-66
2023/09/13 03:02:18;;;;;;;7.25;4.20;;;;;;;16.45;88.86;100629.19;5049591;28;20029;-66
2023/09/13 03:04:43;;;;;;;7.95;3.60;;;;;;;16.21;89.58;100644.41;5049506;28;20472;-65
2023/09/13 03:07:09;;;;;;;7.13;4.25;;;;;;;16.61;89.57;100697.16;5049134;28;20029;-65
2023/09/13 03:09:35;;;;;;;7.93;4.13;;;;;;;16.76;89.76;100717.38;5049291;28;20028;-65
2023/09/13 03:12:01;;;;;;;6.30;3.80;;;;;;;16.92;89.23;100719.44;5049492;28;20078;-66
2023/09/13 03:14:28;;;;;;;7.65;3.92;;;;;;;16.76;89.40;100704.34;5049199;28;20480;-66
2023/09/13 03:16:54;;;;;;;6.22;3.67;;;;;;;16.61;90.64;100724.13;5049121;28;20036;-67
2023/09/13 03:19:19;;;;;;;7.75;4.00;;;;;;;16.69;90.48;100726.84;5049575;28;20025;-65
2023/09/13 03:21:45;;;;;;;7.70;4.10;;;;;;;16.13;90.44;100623.44;5031569;28;20040;-66
2023/09/13 03:24:10;;;;;;;6.65;3.78;;;;;;;16.70;90.54;100705.16;5049505;28;20032;-65
2023/09/13 03:26:36;;;;;;;10.50;4.03;;;;;;;16.56;90.42;100717.06;5049264;28;20117;-66
2023/09/13 03:29:02;;;;;;;9.63;4.45;;;;;;;16.28;92.26;100727.03;5049458;28;20029;-64
2023/09/13 03:31:28;;;;;;;10.50;4.60;;;;;;;15.91;91.82;100649.09;5048921;28;20467;-66
2023/09/13 03:33:55;;;;;;;7.78;4.28;;;;;;;16.46;92.27;100726.44;5050123;28;20480;-68
2023/09/13 03:36:21;;;;;;;13.40;4.13;;;;;;;16.68;92.04;100727.69;5017338;28;20072;-66
2023/09/13 03:38:47;;;;;;;11.68;4.68;;;;;;;16.86;90.70;100715.78;5052965;28;20037;-64
2023/09/13 03:41:18;;;;;;;10.23;4.57;;;;;;;16.94;90.30;100715.09;5052782;28;20078;-66
2023/09/13 03:43:44;;;;;;;7.30;4.40;;;;;;;16.73;89.52;100704.31;5052729;28;20033;-66
2023/09/13 03:46:09;;;;;;;15.50;4.50;;;;;;;16.62;90.92;100723.28;5052288;28;20677;-66
2023/09/13 03:48:37;;;;;;;13.45;4.93;;;;;;;16.54;91.73;100732.69;5052362;28;20033;-66
2023/09/13 03:51:03;;;;;;;13.15;4.95;;;;;;;16.16;91.77;100657.34;5052040;28;20369;-65
2023/09/13 03:53:28;;;;;;;12.27;4.63;;;;;;;16.56;92.03;100723.19;5053004;28;20031;-71
2023/09/13 03:55:54;;;;;;;8.35;5.00;;;;;;;15.94;93.02;100656.97;5052591;28;20400;-67
2023/09/13 03:58:20;;;;;;;18.00;5.32;;;;;;;16.16;94.02;100719.84;5052188;28;20075;-66
2023/09/13 04:00:46;;;;;;;13.18;5.45;;;;;;;16.10;94.44;100725.84;5052070;28;20424;-66
2023/09/13 04:03:12;;;;;;;11.68;7.07;;;;;;;16.06;94.76;100724.03;5052079;28;20036;-64
2023/09/13 04:05:37;;;;;;;25.75;16.23;;;;;;;16.00;94.86;100717.00;5034205;28;20390;-65
2023/09/13 04:08:03;;;;;;;58.85;42.38;;;;;;;16.09;95.07;100728.44;5052289;28;20475;-63
2023/09/13 04:10:29;;;;;;;31.83;20.00;;;;;;;15.84;96.83;100734.03;5051626;28;20488;-70
2023/09/13 04:12:54;;;;;;;17.25;9.73;;;;;;;15.62;96.68;100708.41;5051388;28;20028;-65
2023/09/13 04:15:20;;;;;;;16.25;6.30;;;;;;;15.53;96.89;100696.94;5051398;28;20053;-66
2023/09/13 04:17:45;;;;;;;15.27;5.60;;;;;;;15.75;97.74;100730.34;5051482;28;20017;-66
2023/09/13 04:20:11;;;;;;;11.15;4.75;;;;;;;15.66;97.37;100718.03;5051694;28;20025;-65
2023/09/13 04:22:37;;;;;;;12.18;5.22;;;;;;;15.81;97.57;100741.78;5051888;28;20029;-66
2023/09/13 04:25:04;;;;;;;9.18;4.65;;;;;;;15.90;97.53;100741.09;5052013;28;20028;-72
2023/09/13 04:27:30;;;;;;;17.95;6.00;;;;;;;16.04;97.02;100754.38;5048649;28;20033;-66
2023/09/13 04:29:55;;;;;;;13.00;4.95;;;;;;;16.03;96.69;100751.75;5033843;28;20036;-65
2023/09/13 04:32:21;;;;;;;9.05;5.00;;;;;;;16.03;97.17;100747.41;5051188;28;20032;-66
2023/09/13 04:34:47;;;;;;;12.05;5.18;;;;;;;16.13;96.83;100757.16;5052907;28;20041;-66
2023/09/13 04:37:12;;;;;;;17.23;5.22;;;;;;;16.05;96.00;100729.22;5068148;28;20111;-65
2023/09/13 04:39:38;;;;;;;13.52;6.82;;;;;;;16.26;96.16;100744.34;5053656;28;20044;-66
2023/09/13 04:42:06;;;;;;;14.98;8.13;;;;;;;16.17;96.28;100726.81;5051933;28;20047;-65
2023/09/13 04:44:31;;;;;;;16.20;10.20;;;;;;;15.95;95.46;100676.06;5050529;28;20036;-66
2023/09/13 04:46:57;;;;;;;16.65;9.48;;;;;;;16.58;93.87;100747.50;5050855;28;20028;-64
2023/09/13 04:49:23;;;;;;;16.25;9.15;;;;;;;16.70;93.91;100751.16;5051451;28;20408;-65
2023/09/13 04:51:49;;;;;;;15.10;8.43;;;;;;;16.87;93.00;100754.94;5051423;28;20029;-70
2023/09/13 04:54:14;;;;;;;14.43;7.75;;;;;;;16.56;92.68;100691.91;5051617;28;20033;-66
2023/09/13 04:56:40;;;;;;;12.70;8.25;;;;;;;16.87;93.13;100757.53;5051583;28;20111;-66
2023/09/13 04:59:05;;;;;;;12.65;6.78;;;;;;;16.81;94.95;100747.03;5051339;28;20128;-66
2023/09/13 05:01:31;;;;;;;11.45;5.40;;;;;;;16.66;96.77;100735.50;5051393;28;20499;-64
2023/09/13 05:03:56;;;;;;;11.13;6.03;;;;;;;16.84;96.92;100749.69;5051397;28;20024;-66
2023/09/13 05:06:22;;;;;;;9.95;5.18;;;;;;;16.48;96.98;100675.25;5051123;28;20488;-65
2023/09/13 05:08:50;;;;;;;7.82;5.25;;;;;;;17.12;96.23;100743.19;5033406;28;20544;-65
2023/09/13 05:11:16;;;;;;;10.55;4.60;;;;;;;17.35;95.14;100746.97;5051074;28;20056;-65
2023/09/13 05:13:41;;;;;;;9.77;4.55;;;;;;;17.42;94.08;100738.34;5050781;28;20087;-65
2023/09/13 05:16:07;;;;;;;9.15;4.47;;;;;;;17.56;93.72;100743.78;5051259;28;20055;-70
2023/09/13 05:18:33;;;;;;;8.77;5.05;;;;;;;17.67;92.76;100742.16;5049805;28;20025;-65
2023/09/13 05:20:59;;;;;;;8.95;5.55;;;;;;;17.70;93.57;100741.31;5050964;28;20021;-65
2023/09/13 05:23:25;;;;;;;11.00;5.57;;;;;;;17.65;94.11;100746.47;5050900;28;20028;-64
2023/09/13 05:25:51;;;;;;;14.15;5.88;;;;;;;17.75;92.31;100755.31;5051009;28;20837;-65
2023/09/13 05:28:17;;;;;;;11.18;5.65;;;;;;;17.47;91.76;100731.47;5050435;28;20528;-65
2023/09/13 05:30:46;;;;;;;13.68;6.00;;;;;;;17.28;93.21;100761.66;5051169;28;20064;-64
2023/09/13 05:33:12;;;;;;;;;;;;;;;17.12;94.77;100770.97;5051201;28;20029;-63
2023/09/13 05:35:37;;;;;;;11.35;5.78;;;;;;;16.90;96.53;100770.63;5050905;28;19912;-65
2023/09/13 05:38:03;;;;;;;14.35;5.68;;;;;;;16.74;97.70;100766.03;5050803;28;20028;-65
2023/09/13 05:40:29;;;;;;;11.15;6.50;;;;;;;16.77;98.09;100760.84;5050731;28;20033;-65
2023/09/13 05:42:55;;;;;;;11.40;6.43;;;;;;;16.97;97.91;100756.88;5050593;28;20028;-71
2023/09/13 05:45:21;;;;;;;10.60;6.07;;;;;;;17.09;96.57;100745.72;5050531;28;20035;-65
2023/09/13 05:47:48;;;;;;;23.48;7.43;;;;;;;17.25;96.35;100759.88;5050320;28;20132;-64
2023/09/13 05:50:14;;;;;;;14.35;6.72;;;;;;;17.36;96.36;100769.59;5050470;28;20464;-70
2023/09/13 05:52:40;;;;;;;10.35;6.03;;;;;;;17.46;95.87;100745.38;5050316;28;20056;-71
2023/09/13 05:55:06;;;;;;;15.50;5.93;;;;;;;17.59;94.66;100757.72;5047948;28;20048;-64
2023/09/13 05:57:32;;;;;;;9.38;5.95;;;;;;;17.79;94.71;100757.97;5049915;28;20049;-65
2023/09/13 05:59:58;;;;;;;11.88;6.10;;;;;;;17.92;93.51;100745.06;5050121;28;20078;-66
2023/09/13 06:02:23;;;;;;;11.63;5.88;;;;;;;18.01;92.04;100741.72;5050663;28;20067;-64
2023/09/13 06:04:49;;;;;;;9.00;6.50;;;;;;;17.88;92.14;100686.69;5050179;28;20403;-65
2023/09/13 06:07:14;;;;;;;12.85;5.55;;;;;;;18.43;90.96;100761.31;5050073;28;20029;-65
2023/09/13 06:09:39;;;;;;;11.52;6.32;;;;;;;18.33;91.20;100755.09;5050102;28;20021;-66
2023/09/13 06:12:05;;;;;;;12.02;6.50;;;;;;;18.31;91.51;100762.03;5049983;28;20120;-66
2023/09/13 06:14:31;;;;;;;12.43;5.60;;;;;;;18.22;91.95;100760.22;5050037;28;20021;-66
2023/09/13 06:16:58;;;;;;;16.55;5.72;;;;;;;18.30;91.95;100741.13;5050186;28;20036;-66
2023/09/13 06:19:23;;;;;;;16.58;6.32;;;;;;;18.67;90.61;100767.59;5050232;28;20036;-65
2023/09/13 06:21:49;;;;;;;15.20;7.30;;;;;;;18.93;89.55;100765.22;5050262;28;20485;-65
2023/09/13 06:24:14;;;;;;;14.65;8.18;;;;;;;18.90;89.02;100757.31;5032015;28;20076;-67
2023/09/13 06:26:40;;;;;;;17.42;8.27;;;;;;;18.81;90.10;100771.19;5050090;28;20029;-65
2023/09/13 06:29:05;;;;;;;14.68;7.75;;;;;;;18.77;90.56;100777.28;5049974;28;20033;-63
2023/09/13 06:31:32;;;;;;;12.88;7.20;;;;;;;18.58;91.31;100764.03;5049584;28;20028;-68
2023/09/13 06:33:58;;;;;;;11.40;7.57;;;;;;;18.75;91.37;100760.69;5049763;28;20504;-68
2023/09/13 06:36:24;;;;;;;15.52;7.13;;;;;;;18.87;90.95;100773.84;5049655;28;20037;-67
2023/09/13 06:38:50;;;;;;;12.38;7.38;;;;;;;18.51;91.18;100706.47;5049935;28;20028;-71
2023/09/13 06:41:15;;;;;;;12.52;6.97;;;;;;;19.15;90.42;100774.09;5049855;28;20039;-65
2023/09/13 06:43:41;;;;;;;12.10;5.90;;;;;;;19.12;91.55;100773.19;5048983;28;20028;-67
2023/09/13 06:46:07;;;;;;;10.70;5.85;;;;;;;19.22;91.21;100767.16;5049371;28;20155;-68
2023/09/13 06:48:33;;;;;;;10.40;5.57;;;;;;;19.27;91.73;100775.91;5049231;28;20103;-66
2023/09/13 06:50:59;;;;;;;9.77;5.00;;;;;;;19.39;91.00;100764.63;5046446;28;20025;-68
2023/09/13 06:53:25;;;;;;;9.13;5.25;;;;;;;19.70;89.21;100772.63;5048838;28;20484;-66
2023/09/13 06:55:51;;;;;;;9.48;5.13;;;;;;;19.62;89.27;100745.53;5049128;28;20037;-66
2023/09/13 06:58:16;;;;;;;9.70;5.75;;;;;;;19.70;88.36;100760.41;5049077;28;20416;-63
2023/09/13 07:00:42;;;;;;;12.55;4.80;;;;;;;19.91;88.47;100768.38;5049284;28;20028;-66
2023/09/13 07:03:08;;;;;;;9.85;4.10;;;;;;;20.18;87.87;100768.44;5049030;28;20025;-65
2023/09/13 07:05:34;;;;;;;7.85;4.10;;;;;;;20.50;85.37;100780.72;5049043;28;20040;-67
2023/09/13 07:08:00;;;;;;;6.75;3.97;;;;;;;20.52;85.96;100776.38;5046632;28;20036;-68
2023/09/13 07:10:27;;;;;;;7.60;4.45;;;;;;;20.60;85.81;100775.47;5052232;28;20043;-66
2023/09/13 07:12:52;;;;;;;6.72;4.05;;;;;;;20.59;86.22;100781.63;5052863;28;20130;-66
2023/09/13 07:15:18;;;;;;;6.25;3.97;;;;;;;20.72;86.01;100774.66;5052476;28;20488;-67
2023/09/13 07:17:45;;;;;;;5.22;3.78;;;;;;;21.05;83.14;100776.38;5052691;28;20028;-66
2023/09/13 07:20:11;;;;;;;5.57;3.53;;;;;;;21.21;82.78;100768.47;5052557;28;20044;-69
2023/09/13 07:22:37;;;;;;;7.38;3.75;;;;;;;21.49;80.70;100782.41;5052208;28;20032;-66
2023/09/13 07:25:06;;;;;;;5.80;3.55;;;;;;;21.70;79.73;100773.59;5052607;28;20438;-65
2023/09/13 07:27:32;;;;;;;5.10;3.53;;;;;;;21.56;76.44;100713.22;5052440;28;20028;-67
2023/09/13 07:29:57;;;;;;;5.07;3.63;;;;;;;21.89;76.29;100774.38;5052407;28;20251;-66
2023/09/13 07:32:22;;;;;;;5.95;3.72;;;;;;;22.08;75.04;100777.81;5052324;28;20025;-66
2023/09/13 07:34:48;;;;;;;5.65;3.20;;;;;;;22.18;74.83;100780.38;5052948;28;20120;-65
2023/09/13 07:37:13;;;;;;;6.38;3.38;;;;;;;22.32;72.90;100783.78;5052254;28;20028;-66
2023/09/13 07:39:41;;;;;;;6.95;3.40;;;;;;;22.33;72.30;100785.53;5052258;28;20029;-66
2023/09/13 07:42:07;;;;;;;5.60;3.20;;;;;;;22.21;72.30;100735.66;5052434;28;20107;-68
2023/09/13 07:44:32;;;;;;;7.97;3.17;;;;;;;22.51;71.54;100786.34;5051995;28;20035;-67
2023/09/13 07:46:57;;;;;;;7.55;3.88;;;;;;;22.13;72.14;100783.91;5051898;28;20017;-66
2023/09/13 07:49:23;;;;;;;4.78;3.10;;;;;;;22.28;72.72;100771.53;5052080;28;20025;-67
2023/09/13 07:51:48;;;;;;;4.10;2.75;;;;;;;22.39;68.38;100766.22;5052032;28;20025;-66
2023/09/13 07:54:14;;;;;;;3.80;2.47;;;;;;;21.92;66.64;100660.47;5052201;28;20412;-66
2023/09/13 07:56:39;;;;;;;5.13;2.72;;;;;;;22.77;65.64;100767.69;5049403;28;20408;-67
2023/09/13 07:59:07;;;;;;;5.68;3.13;;;;;;;22.96;66.96;100767.53;5052360;28;20504;-67
2023/09/13 08:01:32;;;;;;;6.25;3.45;;;;;;;23.07;66.24;100763.03;5051984;28;20025;-66
2023/09/13 08:03:58;;;;;;;3.47;2.63;;;;;;;23.17;65.58;100764.69;5051796;28;20025;-66
2023/09/13 08:06:23;;;;;;;3.45;2.53;;;;;;;23.29;63.52;100766.34;5051628;28;20400;-66
2023/09/13 08:08:49;;;;;;;4.18;2.70;;;;;;;23.26;61.81;100742.66;5051286;28;20028;-67
2023/09/13 08:11:14;;;;;;;6.28;2.65;;;;;;;23.38;62.39;100766.22;5051671;28;20021;-65
2023/09/13 08:13:40;;;;;;;4.75;2.80;;;;;;;23.52;62.46;100757.28;5051513;28;20025;-68
2023/09/13 08:16:06;;;;;;;6.47;2.92;;;;;;;23.68;61.99;100764.13;5051711;28;20552;-66
2023/09/13 08:18:31;;;;;;;4.07;2.70;;;;;;;23.73;63.05;100743.84;5051624;28;20025;-66
2023/09/13 08:20:56;;;;;;;6.03;2.97;;;;;;;23.94;59.56;100760.31;5049840;28;20028;-68
2023/09/13 08:23:22;;;;;;;5.55;2.40;;;;;;;24.06;58.02;100759.25;5051589;28;20020;-68
2023/09/13 08:25:47;;;;;;;5.68;2.88;;;;;;;24.11;60.15;100753.91;5051518;28;20033;-66
2023/09/13 08:28:13;;;;;;;4.55;2.70;;;;;;;24.17;60.74;100753.81;5051308;28;20052;-66
2023/09/13 08:30:38;;;;;;;4.85;2.53;;;;;;;24.25;56.86;100751.94;5051117;28;20025;-67
2023/09/13 08:33:06;;;;;;;4.85;2.90;;;;;;;24.35;59.70;100742.09;5050815;28;20027;-65
2023/09/13 08:35:32;;;;;;;5.50;2.95;;;;;;;24.19;60.40;100742.34;5051756;28;20033;-68
2023/09/13 08:37:58;;;;;;;5.55;2.92;;;;;;;24.21;63.26;100739.69;5051473;28;20086;-67
2023/09/13 08:40:24;;;;;;;4.78;3.10;;;;;;;24.11;61.93;100722.25;5051976;28;20033;-67
2023/09/13 08:42:51;;;;;;;5.47;2.80;;;;;;;24.38;58.03;100734.16;5051503;28;20033;-67
2023/09/13 08:45:16;;;;;;;4.53;2.45;;;;;;;24.54;55.72;100729.50;5071132;28;20032;-67
2023/09/13 08:47:44;;;;;;;8.40;2.80;;;;;;;24.77;54.48;100729.09;5071390;28;20032;-67
2023/09/13 08:50:10;;;;;;;7.22;2.97;;;;;;;24.62;56.38;100730.22;5071324;28;20059;-65
2023/09/13 08:52:37;;;;;;;4.30;2.60;;;;;;;24.29;54.90;100647.22;5070794;28;20059;-66
2023/09/13 08:55:06;;;;;;;3.55;2.50;;;;;;;24.68;53.66;100674.69;5071529;28;20040;-68
2023/09/13 08:57:33;;;;;;;3.60;2.60;;;;;;;25.09;53.41;100719.72;5053269;28;20056;-67
2023/09/13 08:59:59;;;;;;;5.80;2.70;;;;;;;24.96;54.74;100708.53;5071041;28;20407;-64
2023/09/13 09:02:26;;;;;;;4.80;2.90;;;;;;;25.17;53.65;100701.06;5053360;28;20025;-66
2023/09/13 09:04:52;;;;;;;6.38;2.60;;;;;;;25.42;52.35;100701.50;5070849;28;20055;-67
2023/09/13 09:07:21;;;;;;;5.32;2.78;;;;;;;25.50;52.23;100709.25;5071008;28;20062;-65
2023/09/13 09:09:47;;;;;;;4.97;2.78;;;;;;;25.54;50.90;100686.25;5054795;28;20029;-68
2023/09/13 09:12:16;;;;;;;5.68;2.58;;;;;;;25.76;50.70;100699.88;5049723;28;20425;-65
2023/09/13 09:14:45;;;;;;;4.85;2.60;;;;;;;25.25;50.94;100588.16;5049894;28;20040;-67
2023/09/13 09:17:13;;;;;;;5.80;2.47;;;;;;;25.86;50.75;100688.19;5050760;28;20115;-66
2023/09/13 09:19:39;;;;;;;6.75;2.58;;;;;;;25.96;50.87;100686.19;5050694;28;20036;-65
2023/09/13 09:22:07;;;;;;;5.43;2.90;;;;;;;26.15;50.04;100691.94;5031524;28;20040;-67
2023/09/13 09:24:33;;;;;;;6.18;3.13;;;;;;;26.25;50.70;100688.16;5049287;28;20025;-67
2023/09/13 09:26:59;;;;;;;5.00;2.40;;;;;;;26.38;49.47;100688.72;5050032;28;20405;-64
2023/09/13 09:29:37;;;;;;;5.03;2.95;;;;;;;26.08;53.97;100618.91;5050311;28;20021;-67
2023/09/13 09:32:05;;;;;;;7.18;2.60;;;;;;;26.38;50.13;100683.44;5046765;28;20108;-67
2023/09/13 09:34:31;;;;;;;5.68;2.60;;;;;;;26.55;49.44;100676.84;5050761;28;20040;-66
2023/09/13 09:37:07;;;;;;;6.10;2.63;;;;;;;26.43;49.02;100665.66;5050310;28;21095;-66
2023/09/13 09:39:42;;;;;;;5.38;3.05;;;;;;;26.61;47.89;100668.72;5046509;28;20021;-66
2023/09/13 09:42:15;;;;;;;3.95;2.40;;;;;;;26.78;46.41;100663.88;5046875;28;20024;-67
2023/09/13 09:44:40;;;;;;;5.60;2.78;;;;;;;26.98;45.80;100666.88;5049004;28;20040;-66
2023/09/13 09:47:10;;;;;;;8.23;2.83;;;;;;;27.14;45.72;100665.50;5050200;28;20025;-66
2023/09/13 09:49:36;;;;;;;5.28;2.85;;;;;;;27.11;45.19;100642.63;5047089;28;20554;-65
2023/09/13 09:52:02;;;;;;;5.38;2.70;;;;;;;27.19;46.30;100660.06;5050100;28;20052;-65
2023/09/13 09:54:28;;;;;;;7.05;2.50;;;;;;;27.26;46.09;100659.84;5050047;28;20033;-64
2023/09/13 09:56:53;;;;;;;20.88;4.65;;;;;;;27.30;46.80;100657.97;5045901;28;20032;-66
2023/09/13 09:59:19;;;;;;;6.20;2.70;;;;;;;27.49;44.47;100646.84;5050020;28;20016;-68
2023/09/13 10:01:46;;;;;;;6.03;2.80;;;;;;;27.43;45.67;100630.22;5049835;28;20024;-66
2023/09/13 10:04:12;;;;;;;6.57;2.83;;;;;;;27.32;46.44;100583.72;5049495;28;20032;-66
2023/09/13 10:06:59;;;;;;;5.45;2.83;;;;;;;27.82;45.27;100636.97;5049843;28;20024;-64
2023/09/13 10:09:36;;;;;;;4.32;2.75;;;;;;;28.05;43.22;100638.91;5030114;28;20472;-67
2023/09/13 10:12:01;;;;;;;4.85;2.58;;;;;;;28.07;43.39;100645.00;5047964;28;20044;-67
2023/09/13 10:14:27;;;;;;;4.65;2.78;;;;;;;27.98;44.44;100640.00;5049775;28;20472;-69
2023/09/13 10:16:55;;;;;;;5.82;2.88;;;;;;;28.15;43.53;100644.78;5049224;28;20078;-66
2023/09/13 10:19:23;;;;;;;4.30;2.60;;;;;;;28.29;47.28;100639.00;5049334;28;20104;-67
2023/09/13 10:21:50;;;;;;;8.45;2.75;;;;;;;28.43;43.59;100627.88;5049174;28;20162;-66
2023/09/13 10:24:17;;;;;;;5.95;2.75;;;;;;;28.35;44.41;100590.09;5049560;28;20060;-66
2023/09/13 10:26:45;;;;;;;7.90;2.95;;;;;;;28.83;42.45;100637.09;5047030;28;20029;-65
2023/09/13 10:29:16;;;;;;;7.32;3.00;;;;;;;28.65;45.21;100633.31;5049708;28;20025;-66
2023/09/13 10:31:46;;;;;;;6.18;2.65;;;;;;;28.54;45.05;100617.75;5049708;28;20048;-65
2023/09/13 10:34:16;;;;;;;;;;;;;;;28.65;44.19;100625.34;5049865;28;20056;-64
2023/09/13 10:36:47;;;;;;;5.93;2.58;;;;;;;28.91;42.42;100628.00;5031728;28;20303;-66
2023/09/13 10:39:21;;;;;;;3.85;2.90;;;;;;;29.13;42.51;100623.59;5049471;28;20519;-65
2023/09/13 10:42:10;;;;;;;5.47;2.72;;;;;;;29.20;42.68;100627.75;5047663;28;20040;-65
2023/09/13 10:44:37;;;;;;;6.95;2.90;;;;;;;29.31;41.14;100622.06;5050791;28;20025;-66
2023/09/13 10:47:07;;;;;;;8.40;2.80;;;;;;;29.56;40.38;100620.22;5053424;28;20040;-66
2023/09/13 10:49:36;;;;;;;6.18;3.05;;;;;;;29.41;39.65;100625.25;5053436;28;20024;-66
2023/09/13 10:52:03;;;;;;;5.47;2.77;;;;;;;29.50;41.19;100614.22;5033013;28;20025;-66
2023/09/13 10:54:30;;;;;;;6.50;2.60;;;;;;;29.27;43.24;100600.94;5053274;28;20265;-65
2023/09/13 10:56:56;;;;;;;6.93;3.10;;;;;;;29.50;40.59;100602.72;5035426;28;20029;-66
2023/09/13 10:59:24;;;;;;;5.53;2.72;;;;;;;29.65;40.02;100614.53;5053300;28;20029;-68
2023/09/13 11:01:50;;;;;;;6.30;3.15;;;;;;;29.10;41.82;100541.31;5053849;28;20522;-70
2023/09/13 11:04:18;;;;;;;5.90;3.05;;;;;;;29.65;39.46;100599.44;5053504;28;20040;-67
2023/09/13 11:06:45;;;;;;;7.45;2.90;;;;;;;29.64;40.12;100595.03;5053366;28;20039;-68
2023/09/13 11:09:15;;;;;;;8.57;3.00;;;;;;;29.74;42.08;100611.50;5053392;28;20040;-68
2023/09/13 11:11:49;;;;;;;7.47;3.33;;;;;;;29.95;40.08;100591.13;5053591;28;20403;-69
2023/09/13 11:14:19;;;;;;;7.00;2.90;;;;;;;29.85;41.50;100585.31;5002441;28;20183;-67
2023/09/13 11:16:46;;;;;;;7.05;2.97;;;;;;;29.96;38.94;100590.22;5053495;28;20060;-69
2023/09/13 11:19:13;;;;;;;4.68;2.75;;;;;;;29.88;41.75;100588.78;4995850;28;20053;-67
2023/09/13 11:21:53;;;;;;;9.13;3.20;;;;;;;29.84;39.31;100586.22;5050097;28;20121;-67
2023/09/13 11:24:41;;;;;;;8.20;2.97;;;;;;;29.62;37.92;100477.19;5052577;28;20052;-68